Time;durP1;ratioP1;P1;durP2;ratioP2;P2;SDS_P1;SDS_P2;PMS_P1;PMS_P2;Temp;Humidity;BMP_temperature;BMP_pressure;BME280_temperature;BME280_humidity;BME280_pressure;Samples;Min_cycle;Max_cycle;Signal;HPM_P1;HPM_P2
2022/02/09 00:00:45;;;;;;;7.70;2.10;;;;;;;;;;4902544;29;20060;-69
2022/02/09 00:03:20;;;;;;;4.78;1.63;;;;;;;;;;4934176;29;20535;-69
2022/02/09 00:06:00;;;;;;;6.40;2.00;;;;;;;;;;4931670;29;20083;-68
2022/02/09 00:08:32;;;;;;;10.55;1.92;;;;;;;;;;4941040;28;20058;-67
2022/02/09 00:11:05;;;;;;;8.70;2.10;;;;;;;;;;4972264;28;20155;-68
2022/02/09 00:13:50;;;;;;;15.63;1.88;;;;;;;;;;4972946;28;20495;-69
2022/02/09 00:19:03;;;;;;;9.23;1.77;;;;;;;;;;4933379;29;20056;-68
2022/02/09 00:30:13;;;;;;;7.60;1.83;;;;;;;;;;4958504;28;20089;-68
2022/02/09 00:38:29;;;;;;;5.38;1.55;;;;;;;;;;4968145;28;20063;-67
2022/02/09 01:11:25;;;;;;;9.02;1.40;;;;;;;;;;4932770;29;20048;-68
2022/02/09 01:12:24;;;;;;;7.43;1.20;;;;;;;;;;4927894;29;20060;-67
2022/02/09 01:40:07;;;;;;;8.18;1.30;;;;;;;;;;4885037;29;20494;-67
2022/02/09 01:56:38;;;;;;;4.57;1.70;;;;;;;;;;4937892;28;20570;-67
2022/02/09 01:59:08;;;;;;;7.10;1.65;;;;;;;;;;4906195;28;20499;-68
2022/02/09 02:01:38;;;;;;;8.52;1.90;;;;;;;;;;4970286;28;20042;-67
2022/02/09 02:04:09;;;;;;;9.15;1.50;;;;;;;;;;4950897;28;20063;-67
2022/02/09 02:06:46;;;;;;;6.60;1.67;;;;;;;;;;4977329;28;20529;-67
2022/02/09 02:09:17;;;;;;;8.05;2.03;;;;;;;;;;4989084;28;20062;-67
2022/02/09 02:11:53;;;;;;;2.97;1.27;;;;;;;;;;4989694;28;20438;-68
2022/02/09 02:14:40;;;;;;;7.20;1.88;;;;;;;;;;4989584;28;20454;-67
2022/02/09 02:17:31;;;;;;;8.73;1.83;;;;;;;;;;4989343;28;20058;-67
2022/02/09 02:20:13;;;;;;;7.63;1.98;;;;;;;;;;4950418;29;20050;-67
2022/02/09 02:23:06;;;;;;;4.68;1.63;;;;;;;;;;4950662;29;20058;-67
2022/02/09 02:26:06;;;;;;;3.97;1.98;;;;;;;;;;4918783;29;20051;-68
2022/02/09 02:28:49;;;;;;;6.10;1.80;;;;;;;;;;4950618;29;20059;-68
2022/02/09 02:34:39;;;;;;;10.02;1.92;;;;;;;;;;4950345;29;20055;-67
2022/02/09 02:56:47;;;;;;;7.25;1.58;;;;;;;;;;4969739;28;20061;-68
2022/02/09 03:10:59;;;;;;;6.38;1.60;;;;;;;;;;5010940;28;20085;-68
2022/02/09 03:13:30;;;;;;;7.53;1.77;;;;;;;;;;5010858;28;20045;-68
2022/02/09 03:16:08;;;;;;;4.93;1.95;;;;;;;;;;4976256;28;20054;-68
2022/02/09 03:21:48;;;;;;;8.90;2.00;;;;;;;;;;4978896;28;20053;-68
2022/02/09 03:44:18;;;;;;;4.90;1.80;;;;;;;;;;4972854;28;20430;-69
2022/02/09 03:52:02;;;;;;;6.43;1.52;;;;;;;;;;4921457;29;20055;-68
2022/02/09 04:00:03;;;;;;;5.88;1.70;;;;;;;;;;4933705;29;20055;-68
2022/02/09 04:02:33;;;;;;;7.50;2.10;;;;;;;;;;4934085;29;20055;-68
2022/02/09 04:05:04;;;;;;;7.68;1.90;;;;;;;;;;4893860;29;20061;-68
2022/02/09 04:07:34;;;;;;;3.22;1.33;;;;;;;;;;4892399;29;20049;-69
2022/02/09 04:10:07;;;;;;;5.80;1.70;;;;;;;;;;4877380;29;20053;-68
2022/02/09 04:13:10;;;;;;;4.35;1.88;;;;;;;;;;4914742;29;20048;-69
2022/02/09 04:38:13;;;;;;;7.40;1.80;;;;;;;;;;4876694;29;20204;-68
2022/02/09 04:41:17;;;;;;;6.22;1.60;;;;;;;;;;4876746;29;20678;-68
2022/02/09 04:54:45;;;;;;;7.10;2.10;;;;;;;;;;4821384;29;20063;-69
2022/02/09 04:57:34;;;;;;;8.75;2.10;;;;;;;;;;4820899;29;20085;-69
2022/02/09 05:00:30;;;;;;;7.18;1.48;;;;;;;;;;4821143;29;20062;-69
2022/02/09 05:27:20;;;;;;;3.88;1.40;;;;;;;;;;4814858;29;20058;-69
2022/02/09 05:29:50;;;;;;;9.93;1.63;;;;;;;;;;4835954;29;20068;-68
2022/02/09 05:32:20;;;;;;;10.80;2.08;;;;;;;;;;4838591;29;20066;-69
2022/02/09 05:34:52;;;;;;;5.85;1.75;;;;;;;;;;4811943;29;20062;-69
2022/02/09 05:37:22;;;;;;;6.10;1.70;;;;;;;;;;4787167;29;20067;-69
2022/02/09 05:39:52;;;;;;;11.35;2.15;;;;;;;;;;4817274;29;20050;-67
2022/02/09 05:42:22;;;;;;;6.55;1.60;;;;;;;;;;4801979;29;20500;-69
2022/02/09 05:44:55;;;;;;;6.47;1.67;;;;;;;;;;4820064;29;20086;-69
2022/02/09 05:50:20;;;;;;;4.13;1.80;;;;;;;;;;4823969;29;20499;-69
2022/02/09 05:53:10;;;;;;;6.00;1.70;;;;;;;;;;4856587;29;20057;-69
2022/02/09 05:55:47;;;;;;;10.65;1.88;;;;;;;;;;4844478;29;21057;-69
2022/02/09 06:01:02;;;;;;;7.53;1.33;;;;;;;;;;4859527;29;20053;-69
2022/02/09 06:03:32;;;;;;;6.53;1.30;;;;;;;;;;4875474;29;20064;-68
2022/02/09 06:06:03;;;;;;;7.80;1.40;;;;;;;;;;4838166;29;20053;-68
2022/02/09 06:08:34;;;;;;;5.82;1.35;;;;;;;;;;4823594;29;20062;-68
2022/02/09 06:22:06;;;;;;;5.57;1.23;;;;;;;;;;4796152;29;20076;-68
2022/02/09 06:24:39;;;;;;;5.25;1.45;;;;;;;;;;4819948;29;20058;-68
2022/02/09 06:27:14;;;;;;;3.95;1.50;;;;;;;;;;4829371;29;20061;-68
2022/02/09 06:29:46;;;;;;;4.15;1.55;;;;;;;;;;4856090;29;20061;-68
2022/02/09 06:32:18;;;;;;;;;;;;;;;;;;4856978;29;20065;-69
2022/02/09 06:34:50;;;;;;;6.35;1.50;;;;;;;;;;4856397;29;19950;-68
2022/02/09 06:37:25;;;;;;;4.97;1.42;;;;;;;;;;4856439;29;20066;-68
2022/02/09 06:39:59;;;;;;;4.25;1.45;;;;;;;;;;4856285;29;20050;-68
2022/02/09 06:42:31;;;;;;;5.05;1.50;;;;;;;;;;4856412;29;20050;-68
2022/02/09 06:45:15;;;;;;;6.38;1.23;;;;;;;;;;4856385;29;20529;-68
2022/02/09 06:47:46;;;;;;;4.68;1.50;;;;;;;;;;4856391;29;20442;-68
2022/02/09 06:53:11;;;;;;;7.53;1.50;;;;;;;;;;4950454;29;20055;-68
2022/02/09 06:55:49;;;;;;;4.53;1.33;;;;;;;;;;4953861;28;20052;-68
2022/02/09 07:01:13;;;;;;;2.95;1.10;;;;;;;;;;4916107;29;19939;-68
2022/02/09 07:03:43;;;;;;;6.30;1.45;;;;;;;;;;4900317;29;20064;-68
2022/02/09 07:06:13;;;;;;;3.85;1.30;;;;;;;;;;4867388;29;20055;-69
2022/02/09 07:08:43;;;;;;;4.35;1.98;;;;;;;;;;4922702;29;20094;-68
2022/02/09 07:11:14;;;;;;;6.65;1.60;;;;;;;;;;4938517;29;20671;-68
2022/02/09 07:13:44;;;;;;;4.90;1.65;;;;;;;;;;4922064;29;20514;-68
2022/02/09 07:16:14;;;;;;;9.32;1.40;;;;;;;;;;4937979;29;20120;-68
2022/02/09 07:18:47;;;;;;;4.05;1.55;;;;;;;;;;4922656;29;20059;-68
2022/02/09 07:21:26;;;;;;;2.85;1.50;;;;;;;;;;4906599;29;20051;-68
2022/02/09 07:23:59;;;;;;;2.83;1.20;;;;;;;;;;4953811;29;20059;-68
2022/02/09 07:26:42;;;;;;;8.35;1.13;;;;;;;;;;4953937;29;20051;-68
2022/02/09 07:29:14;;;;;;;4.53;1.38;;;;;;;;;;4915568;29;20052;-68
2022/02/09 07:31:46;;;;;;;6.03;1.50;;;;;;;;;;4883933;29;20059;-68
2022/02/09 07:34:16;;;;;;;7.93;1.45;;;;;;;;;;4899564;29;20455;-68
2022/02/09 07:36:47;;;;;;;4.22;1.30;;;;;;;;;;4915559;29;20104;-68
2022/02/09 07:39:18;;;;;;;3.95;1.58;;;;;;;;;;4870087;29;20067;-68
2022/02/09 07:41:51;;;;;;;3.67;1.25;;;;;;;;;;4896510;29;20504;-68
2022/02/09 07:47:36;;;;;;;6.88;1.45;;;;;;;;;;4915178;29;20052;-68
2022/02/09 07:52:53;;;;;;;3.28;1.25;;;;;;;;;;4915162;29;21201;-68
2022/02/09 07:55:23;;;;;;;4.03;1.45;;;;;;;;;;4880183;29;20056;-68
2022/02/09 07:57:55;;;;;;;7.43;1.35;;;;;;;;;;4896309;29;20063;-68
2022/02/09 08:00:25;;;;;;;5.18;1.40;;;;;;;;;;4896193;29;20065;-68
2022/02/09 08:02:57;;;;;;;4.63;1.30;;;;;;;;;;4896152;29;20451;-68
2022/02/09 08:05:27;;;;;;;8.02;1.52;;;;;;;;;;4879963;29;20072;-68
2022/02/09 08:07:58;;;;;;;5.30;1.40;;;;;;;;;;4932362;29;20055;-68
2022/02/09 08:32:56;;;;;;;4.50;1.33;;;;;;;;;;4864565;29;20056;-68
2022/02/09 08:35:26;;;;;;;4.00;1.00;;;;;;;;;;4895720;29;20068;-69
2022/02/09 08:38:00;;;;;;;5.43;1.35;;;;;;;;;;4895505;29;20057;-68
2022/02/09 08:40:30;;;;;;;3.85;1.20;;;;;;;;;;4880157;29;20409;-68
2022/02/09 08:43:01;;;;;;;8.65;1.17;;;;;;;;;;4895458;29;20065;-69
2022/02/09 08:45:31;;;;;;;5.30;1.38;;;;;;;;;;4895682;29;20056;-68
2022/02/09 08:48:01;;;;;;;6.68;1.50;;;;;;;;;;4913180;29;20051;-67
2022/02/09 08:50:32;;;;;;;2.92;1.35;;;;;;;;;;5013115;28;20053;-68
2022/02/09 08:53:04;;;;;;;8.13;1.50;;;;;;;;;;4962095;28;20054;-68
2022/02/09 08:55:37;;;;;;;3.90;0.93;;;;;;;;;;5013138;28;20044;-68
2022/02/09 08:58:07;;;;;;;6.90;1.50;;;;;;;;;;5012880;28;20042;-68
2022/02/09 09:00:38;;;;;;;6.60;1.45;;;;;;;;;;5012902;28;20410;-68
2022/02/09 09:03:25;;;;;;;6.10;1.65;;;;;;;;;;4978246;28;20045;-68
2022/02/09 09:06:00;;;;;;;3.30;1.05;;;;;;;;;;5010400;28;20437;-69
2022/02/09 10:04:06;;;;;;;6.82;1.30;;;;;;;;;;4904567;29;19927;-69
2022/02/09 10:33:15;;;;;;;8.30;3.00;;;;;;;;;;5008426;28;20054;-67
2022/02/09 10:36:00;;;;;;;6.60;2.03;;;;;;;;;;4976348;28;20054;-67
2022/02/09 10:38:37;;;;;;;12.05;2.08;;;;;;;;;;5008880;28;20054;-67
2022/02/09 10:41:15;;;;;;;11.10;1.90;;;;;;;;;;4992337;28;20049;-67
2022/02/09 10:43:46;;;;;;;4.43;1.80;;;;;;;;;;5008532;28;20402;-67
2022/02/09 10:46:23;;;;;;;4.93;2.22;;;;;;;;;;5008752;28;20045;-67
2022/02/09 10:48:57;;;;;;;6.95;1.70;;;;;;;;;;4992270;28;20053;-67
2022/02/09 10:51:39;;;;;;;11.65;1.55;;;;;;;;;;4976029;28;20062;-66
2022/02/09 10:54:11;;;;;;;10.35;1.80;;;;;;;;;;4992617;28;20494;-67
2022/02/09 10:56:45;;;;;;;5.07;2.03;;;;;;;;;;5008550;28;20046;-67
2022/02/09 10:59:17;;;;;;;6.60;1.77;;;;;;;;;;4992143;28;20058;-67
2022/02/09 11:01:48;;;;;;;7.78;2.10;;;;;;;;;;4991993;28;20053;-67
2022/02/09 11:04:19;;;;;;;6.07;1.90;;;;;;;;;;4992399;28;20387;-67
2022/02/09 11:06:50;;;;;;;5.75;2.20;;;;;;;;;;5008616;28;20050;-67
2022/02/09 11:09:29;;;;;;;6.97;2.00;;;;;;;;;;4992295;28;20070;-67
2022/02/09 11:12:00;;;;;;;7.63;1.80;;;;;;;;;;4945546;28;20413;-67
2022/02/09 11:14:30;;;;;;;4.43;2.33;;;;;;;;;;5010771;28;20413;-67
2022/02/09 11:17:04;;;;;;;8.57;2.75;;;;;;;;;;5010916;28;20081;-67
2022/02/09 11:19:37;;;;;;;8.93;3.20;;;;;;;;;;5010765;28;20046;-66
2022/02/09 11:22:10;;;;;;;8.52;2.95;;;;;;;;;;5010921;28;20486;-67
2022/02/09 11:24:46;;;;;;;9.80;2.40;;;;;;;;;;5010984;28;20057;-67
2022/02/09 11:27:28;;;;;;;7.22;2.83;;;;;;;;;;4969321;28;20058;-67
2022/02/09 11:30:08;;;;;;;8.30;2.20;;;;;;;;;;4969592;28;20059;-67
2022/02/09 11:39:10;;;;;;;6.85;2.13;;;;;;;;;;4969185;28;20114;-66
2022/02/09 11:41:59;;;;;;;6.40;2.22;;;;;;;;;;4954567;28;20450;-66
2022/02/09 11:45:17;;;;;;;13.10;2.75;;;;;;;;;;4909538;28;20051;-66
2022/02/09 11:56:33;;;;;;;8.80;2.60;;;;;;;;;;4972825;28;20062;-67
2022/02/09 12:10:44;;;;;;;7.63;2.38;;;;;;;;;;4868450;29;20056;-67
2022/02/09 12:13:52;;;;;;;4.97;2.03;;;;;;;;;;4877141;29;20057;-68
2022/02/09 12:19:14;;;;;;;7.32;2.30;;;;;;;;;;4877201;29;20053;-67
2022/02/09 12:24:27;;;;;;;10.48;2.08;;;;;;;;;;4847732;29;20073;-67
2022/02/09 12:27:02;;;;;;;4.15;1.50;;;;;;;;;;4876705;29;20049;-67
2022/02/09 12:29:59;;;;;;;4.28;2.00;;;;;;;;;;4862378;29;20064;-67
2022/02/09 12:32:29;;;;;;;;;;;;;;;;;;4840101;29;20066;-68
2022/02/09 12:35:10;;;;;;;3.63;1.40;;;;;;;;;;4840086;29;19936;-67
2022/02/09 12:37:45;;;;;;;7.22;3.00;;;;;;;;;;4824522;29;20098;-67
2022/02/09 12:40:22;;;;;;;6.07;2.20;;;;;;;;;;4839598;29;20062;-67
2022/02/09 12:42:53;;;;;;;5.60;1.85;;;;;;;;;;4824479;29;20065;-67
2022/02/09 12:45:26;;;;;;;5.53;1.95;;;;;;;;;;4867699;29;20064;-66
2022/02/09 12:48:01;;;;;;;5.65;1.95;;;;;;;;;;4876819;29;20049;-67
2022/02/09 12:50:41;;;;;;;5.57;2.22;;;;;;;;;;4848842;29;20064;-66
2022/02/09 12:53:13;;;;;;;6.43;2.95;;;;;;;;;;4879038;29;20060;-66
2022/02/09 12:55:44;;;;;;;10.45;3.97;;;;;;;;;;4895016;29;20052;-67
2022/02/09 12:58:15;;;;;;;6.60;2.45;;;;;;;;;;4895377;29;20057;-65
2022/02/09 13:00:47;;;;;;;6.45;2.10;;;;;;;;;;4879755;29;20101;-65
2022/02/09 13:03:23;;;;;;;5.90;2.42;;;;;;;;;;4895047;29;20060;-65
2022/02/09 13:05:58;;;;;;;5.60;2.33;;;;;;;;;;4867302;29;20075;-64
2022/02/09 13:08:31;;;;;;;5.82;2.72;;;;;;;;;;4917494;28;20095;-66
2022/02/09 13:11:21;;;;;;;4.93;3.00;;;;;;;;;;4975014;28;20057;-65
2022/02/09 13:13:57;;;;;;;6.05;1.90;;;;;;;;;;4958229;28;20462;-65
2022/02/09 13:19:36;;;;;;;3.67;1.83;;;;;;;;;;4901047;29;20055;-65
2022/02/09 13:25:32;;;;;;;5.50;1.90;;;;;;;;;;4838653;29;20080;-67
2022/02/09 14:03:22;;;;;;;5.35;2.65;;;;;;;;;;4861169;29;20065;-71
2022/02/09 14:56:07;;;;;;;5.38;1.92;;;;;;;;;;4893305;29;20056;-68
2022/02/09 14:58:41;;;;;;;3.17;1.77;;;;;;;;;;4893605;29;20079;-68
2022/02/09 15:01:21;;;;;;;3.40;1.98;;;;;;;;;;4911685;29;20060;-68
2022/02/09 15:12:21;;;;;;;3.25;2.17;;;;;;;;;;4893304;29;20057;-70
2022/02/09 15:22:45;;;;;;;4.00;1.98;;;;;;;;;;4915661;29;20060;-68
2022/02/09 15:25:20;;;;;;;7.38;1.88;;;;;;;;;;4915563;29;20424;-67
2022/02/09 15:27:58;;;;;;;7.55;1.90;;;;;;;;;;4915842;29;20060;-68
2022/02/09 15:30:35;;;;;;;6.07;1.88;;;;;;;;;;4915731;29;20516;-68
2022/02/09 15:33:06;;;;;;;3.25;1.65;;;;;;;;;;4935822;29;20145;-68
2022/02/09 15:35:40;;;;;;;4.03;1.80;;;;;;;;;;4953757;29;20058;-68
2022/02/09 15:38:22;;;;;;;3.28;1.80;;;;;;;;;;4953504;29;20495;-67
2022/02/09 16:05:57;;;;;;;2.88;1.30;;;;;;;;;;5013914;28;20422;-67
2022/02/09 16:09:03;;;;;;;5.63;1.33;;;;;;;;;;4979527;28;20080;-68
2022/02/09 16:16:25;;;;;;;2.03;1.25;;;;;;;;;;4956078;28;20047;-66
2022/02/09 16:20:05;;;;;;;2.67;1.52;;;;;;;;;;4933950;29;20154;-67
2022/02/09 16:22:50;;;;;;;2.17;1.27;;;;;;;;;;4895765;29;20056;-67
2022/02/09 16:25:33;;;;;;;3.20;1.50;;;;;;;;;;4880414;29;20067;-66
2022/02/09 16:37:17;;;;;;;2.42;1.30;;;;;;;;;;4895527;29;20501;-67
2022/02/09 16:48:50;;;;;;;4.22;1.23;;;;;;;;;;4791567;29;20051;-68
2022/02/09 16:51:23;;;;;;;3.00;1.60;;;;;;;;;;4818058;29;20176;-67
2022/02/09 16:56:51;;;;;;;2.42;1.10;;;;;;;;;;4821527;29;20066;-68
2022/02/09 17:19:03;;;;;;;4.00;1.35;;;;;;;;;;4876484;29;20133;-67
2022/02/09 17:21:33;;;;;;;3.28;1.40;;;;;;;;;;4853913;28;20080;-68
2022/02/09 17:24:04;;;;;;;4.22;1.40;;;;;;;;;;4969066;28;20061;-68
2022/02/09 17:26:35;;;;;;;4.13;2.15;;;;;;;;;;5010388;28;20050;-68
2022/02/09 17:29:05;;;;;;;2.30;1.30;;;;;;;;;;5011250;28;20034;-68
2022/02/09 17:53:37;;;;;;;4.97;1.33;;;;;;;;;;5012015;28;20034;-65
2022/02/09 17:56:17;;;;;;;2.33;1.30;;;;;;;;;;5011822;28;20041;-65
2022/02/09 17:58:52;;;;;;;5.22;1.40;;;;;;;;;;5010031;28;20521;-65
2022/02/09 18:01:22;;;;;;;2.35;1.30;;;;;;;;;;5011979;28;20402;-64
2022/02/09 18:03:54;;;;;;;6.85;1.60;;;;;;;;;;4994048;28;20513;-67
2022/02/09 18:06:32;;;;;;;;;;;;;;;;;;5012105;28;20045;-67
2022/02/09 18:09:11;;;;;;;3.80;1.75;;;;;;;;;;5011686;28;19925;-67
2022/02/09 18:28:58;;;;;;;2.22;1.30;;;;;;;;;;4950595;28;20151;-65
2022/02/09 18:31:43;;;;;;;2.95;1.25;;;;;;;;;;4950855;28;20050;-65
2022/02/09 18:59:25;;;;;;;3.63;1.70;;;;;;;;;;4995701;28;20050;-65
2022/02/09 19:07:56;;;;;;;6.35;2.35;;;;;;;;;;4937500;28;20533;-65
2022/02/09 19:27:02;;;;;;;2.03;1.20;;;;;;;;;;4914069;28;20054;-65
2022/02/09 19:44:38;;;;;;;2.55;1.17;;;;;;;;;;4913969;29;20079;-65
2022/02/09 19:49:32;;;;;;;5.15;1.08;;;;;;;;;;4949752;29;20539;-64
2022/02/09 19:54:48;;;;;;;6.47;1.35;;;;;;;;;;4902723;29;20070;-65
2022/02/09 19:57:19;;;;;;;3.13;1.20;;;;;;;;;;4949980;29;20046;-65
2022/02/09 19:59:51;;;;;;;2.40;1.20;;;;;;;;;;4950039;29;20577;-65
2022/02/09 20:02:21;;;;;;;2.53;1.02;;;;;;;;;;4950826;28;20044;-65
2022/02/09 20:04:57;;;;;;;2.38;1.10;;;;;;;;;;4953106;29;20054;-65
2022/02/09 20:07:28;;;;;;;3.80;1.20;;;;;;;;;;4953339;29;20066;-63
2022/02/09 20:10:01;;;;;;;2.85;1.33;;;;;;;;;;4937772;29;20062;-65
2022/02/09 20:12:31;;;;;;;2.30;1.20;;;;;;;;;;4953273;29;20054;-65
2022/02/09 20:15:01;;;;;;;4.90;1.33;;;;;;;;;;4953042;29;20051;-65
2022/02/09 20:17:32;;;;;;;4.93;1.13;;;;;;;;;;4953085;29;20112;-65
2022/02/09 20:20:03;;;;;;;3.63;1.40;;;;;;;;;;4972444;28;20061;-65
2022/02/09 20:22:34;;;;;;;2.83;1.40;;;;;;;;;;5013804;28;20073;-65
2022/02/09 20:25:05;;;;;;;3.72;1.13;;;;;;;;;;4978808;28;20068;-64
2022/02/09 20:27:38;;;;;;;3.67;1.27;;;;;;;;;;5013524;28;20046;-65
2022/02/09 20:30:10;;;;;;;;;;;;;;;;;;5013749;28;20532;-65
2022/02/09 20:32:48;;;;;;;3.47;1.10;;;;;;;;;;5013429;28;19921;-65
2022/02/09 20:35:20;;;;;;;3.70;1.23;;;;;;;;;;5013303;28;20053;-65
2022/02/09 20:37:52;;;;;;;;;;;;;;;;;;5013881;28;20379;-65
2022/02/09 20:40:26;;;;;;;5.40;1.75;;;;;;;;;;5013375;28;19921;-65
2022/02/09 20:42:59;;;;;;;6.72;1.38;;;;;;;;;;5013189;28;20046;-65
2022/02/09 20:48:26;;;;;;;2.90;1.45;;;;;;;;;;4933158;29;20103;-65
2022/02/09 20:51:01;;;;;;;4.05;1.55;;;;;;;;;;4918144;29;20591;-66
2022/02/09 20:53:37;;;;;;;3.55;1.75;;;;;;;;;;4933102;29;20055;-66
2022/02/09 20:56:08;;;;;;;8.35;4.03;;;;;;;;;;4933105;29;20055;-65
2022/02/09 20:58:41;;;;;;;5.55;3.05;;;;;;;;;;4933114;29;20055;-65
2022/02/09 21:01:17;;;;;;;9.57;1.90;;;;;;;;;;4933168;29;20440;-65
2022/02/09 21:03:53;;;;;;;4.97;2.00;;;;;;;;;;4901566;29;20066;-65
2022/02/09 21:42:00;;;;;;;9.07;1.80;;;;;;;;;;5009409;28;20158;-65
2022/02/09 21:44:52;;;;;;;7.53;1.83;;;;;;;;;;5009801;28;20402;-65
2022/02/09 21:53:16;;;;;;;7.30;1.98;;;;;;;;;;4977018;28;20061;-65
2022/02/09 22:01:39;;;;;;;7.07;2.10;;;;;;;;;;4970472;28;20522;-65
2022/02/09 22:20:57;;;;;;;7.75;2.40;;;;;;;;;;4970232;28;20059;-66
2022/02/09 22:26:29;;;;;;;3.97;2.20;;;;;;;;;;4921644;28;20063;-65
2022/02/09 22:29:10;;;;;;;11.57;2.28;;;;;;;;;;4970152;28;20058;-65
2022/02/09 22:32:07;;;;;;;5.82;2.28;;;;;;;;;;4915290;29;20490;-65
2022/02/09 22:46:27;;;;;;;15.02;3.10;;;;;;;;;;4931323;29;20055;-65
2022/02/09 22:49:17;;;;;;;11.38;3.05;;;;;;;;;;4931165;29;20051;-66
2022/02/09 22:54:42;;;;;;;6.80;2.60;;;;;;;;;;4931272;29;20055;-66
2022/02/09 22:57:14;;;;;;;11.20;3.35;;;;;;;;;;4931058;29;20468;-66
2022/02/09 22:59:58;;;;;;;8.80;3.55;;;;;;;;;;4899159;29;20559;-65
2022/02/09 23:02:36;;;;;;;;;;;;;;;;;;4916331;29;20137;-65
2022/02/09 23:05:41;;;;;;;12.57;3.63;;;;;;;;;;4931356;29;19934;-66
2022/02/09 23:13:44;;;;;;;15.40;3.40;;;;;;;;;;4988915;28;20058;-66
2022/02/09 23:16:24;;;;;;;9.20;3.90;;;;;;;;;;4988902;28;20046;-66
2022/02/09 23:25:20;;;;;;;10.23;3.22;;;;;;;;;;4995847;28;20060;-66
